Terminal Aerodrome Forecast
Issued by NWS

Home | Current Version | Previous Version | Text Only | Print | Product List | Glossary On
Versions: 1 2 3 4 5 6 7 8 9 10 11 12
000
FTUS44 KLZK 250500
TAFBPK
TAF
KBPK 250520Z 2506/2606 VRB04KT P6SM SCT100 BKN250
     FM250800 29006KT P6SM SCT050 BKN100
     FM251200 27012G20KT P6SM VCSH OVC050
     FM251500 30012G22KT P6SM BKN030 PROB30 2521/2603 5SM -SHRA=

USA.gov is the U.S. government's official web portal to all federal, state and local government web resources and services.